Shenandoah Junction, Pennsylvania
Current Conditions -  °F | °C
As of 3:15 AM on Thursday 27 Nov 2014 (Local Time) from KHZL Reporting Station
Overcast Overcast  
Wind Chill: 25°   Ceiling: 300
Heat Index: 30°   Visibility: 7mi
Dew Point: 28°   Wind: 5mph
Humidity: 93%   Direction: 280°W
Pressure: 29.93"   Gusts: NA
Location:  40.8208°N, 76.1672°W
Report Text: KHZL 270815Z AUTO 28004KT 7SM BKN003 BKN008 OVC015 M01/M02 A2993 RMK AO2
Loading
Personal Weather Stations






























Interactive Weather Map New forecast layout! Learn more

10-Day Weather Forecast

Advertisements
Track Severe Weather on mobile